Terminal Aerodrome Forecast
Issued by NWS

Home | Current Version | Previous Version | Text Only | Print | Product List | Glossary On
Versions: 1 2 3 4 5 6 7 8 9 10 11 12 13 14 15 16 17 18 19 20 21 22 23 24 25 26 27
146
FTUS44 KLZK 260142 AAA
TAFHRO
TAF AMD
KHRO 260142Z 2602/2624 17008KT P6SM BKN015 BKN050
     FM260700 15006KT 6SM BR SCT015 BKN040
      TEMPO 2609/2613 2SM BR BKN005 OVC020
     FM261500 17008KT P6SM BKN020 BKN250
     FM261800 18010KT P6SM VCTS SCT030CB BKN100=

USA.gov is the U.S. government's official web portal to all federal, state and local government web resources and services.